首页
METAR-TAF:

METAR-TAF

机场 :

佐賀機場

佐賀, 日本

纬度: 33-09N, 经度: 130-18E, 海拔: 2米

当前天气观测

该预报发布于43分钟前的08:00 UTC
风速4节,风向
温度 15°C
湿度 55%
气压 1023 hPa
能见度10公里或以上
少量云层高于4000英尺
散云层高于4500英尺

METAR: RJFS 200800Z 01004KT 9999 FEW040 SCT045 15/06 Q1023

时间: 17:43 (08:43 UTC)

预报

该预报发布于3小时和37分钟前的05:06 UTC
预报有效从20日的 06点(UTC)到 21日的 12点(UTC)
风速5节,风向
能见度10公里或以上
少量云层高于3000英尺
散云层高于4000英尺
成为
从 20日的 06点(UTC)到 20日的 08点(UTC)
风速4节,风向北转西北
成为
从 20日的 10点(UTC)到 20日的 12点(UTC)
风速5节,风向北转东北

TAF: RJFS 200506Z 2006/2112 17005KT 9999 FEW030 SCT040 BECMG 2006/2008 33004KT BECMG 2010/2012 02005KT

超过4000个机场的气象观测和天气预报(METAR&TAF报告)。

可查询的气象台以黄色和红色小点在地图上表示。

将鼠标移到小点上方,可查看气象台名称。

然后点击查看天气观测和预报。

如需切换地图:点击带黑十字的绿色按钮放大地图;点击带横线的绿色按钮缩小地图;或者点击绿色箭头查看邻近地区的地图。


METAR-TAF: